sensor_id;sensor_type;location;lat;lon;timestamp;temperature;humidity
36800;DHT22;22752;51.960;5.886;2024-01-15T00:01:58;2.00;99.90
36800;DHT22;22752;51.960;5.886;2024-01-15T00:04:24;1.90;99.90
36800;DHT22;22752;51.960;5.886;2024-01-15T00:06:50;2.00;99.90
36800;DHT22;22752;51.960;5.886;2024-01-15T00:09:15;1.80;99.90
36800;DHT22;22752;51.960;5.886;2024-01-15T00:11:42;1.80;99.90
36800;DHT22;22752;51.960;5.886;2024-01-15T00:14:08;1.80;99.90
36800;DHT22;22752;51.960;5.886;2024-01-15T00:16:34;1.90;99.90
36800;DHT22;22752;51.960;5.886;2024-01-15T00:19:00;1.90;99.90
36800;DHT22;22752;51.960;5.886;2024-01-15T00:21:25;1.90;99.90
36800;DHT22;22752;51.960;5.886;2024-01-15T00:23:51;1.90;99.90
36800;DHT22;22752;51.960;5.886;2024-01-15T00:26:17;1.80;99.90
36800;DHT22;22752;51.960;5.886;2024-01-15T00:28:43;1.80;99.90
36800;DHT22;22752;51.960;5.886;2024-01-15T00:31:08;1.70;99.90
36800;DHT22;22752;51.960;5.886;2024-01-15T00:33:34;1.70;99.90
36800;DHT22;22752;51.960;5.886;2024-01-15T00:36:00;1.60;99.90
36800;DHT22;22752;51.960;5.886;2024-01-15T00:38:26;1.60;99.90
36800;DHT22;22752;51.960;5.886;2024-01-15T00:40:52;1.60;99.90
36800;DHT22;22752;51.960;5.886;2024-01-15T00:43:17;1.50;99.90
36800;DHT22;22752;51.960;5.886;2024-01-15T00:45:46;1.50;99.90
36800;DHT22;22752;51.960;5.886;2024-01-15T00:48:12;1.50;99.90
36800;DHT22;22752;51.960;5.886;2024-01-15T00:50:38;1.40;99.90
36800;DHT22;22752;51.960;5.886;2024-01-15T00:53:03;1.40;99.90
36800;DHT22;22752;51.960;5.886;2024-01-15T00:55:29;1.40;99.90
36800;DHT22;22752;51.960;5.886;2024-01-15T00:57:55;1.40;99.90
36800;DHT22;22752;51.960;5.886;2024-01-15T01:00:21;1.40;99.90
36800;DHT22;22752;51.960;5.886;2024-01-15T01:02:46;1.40;99.90
36800;DHT22;22752;51.960;5.886;2024-01-15T01:05:12;1.40;99.90
36800;DHT22;22752;51.960;5.886;2024-01-15T01:07:38;1.30;99.90
36800;DHT22;22752;51.960;5.886;2024-01-15T01:10:04;1.30;99.90
36800;DHT22;22752;51.960;5.886;2024-01-15T01:12:30;1.30;99.90
36800;DHT22;22752;51.960;5.886;2024-01-15T01:14:56;1.30;99.90
36800;DHT22;22752;51.960;5.886;2024-01-15T01:17:22;1.30;99.90
36800;DHT22;22752;51.960;5.886;2024-01-15T01:19:49;1.30;99.90
36800;DHT22;22752;51.960;5.886;2024-01-15T01:22:15;1.30;99.90
36800;DHT22;22752;51.960;5.886;2024-01-15T01:24:40;1.30;99.90
36800;DHT22;22752;51.960;5.886;2024-01-15T01:27:06;1.30;99.90
36800;DHT22;22752;51.960;5.886;2024-01-15T01:29:32;1.30;99.90
36800;DHT22;22752;51.960;5.886;2024-01-15T01:31:58;1.30;99.90
36800;DHT22;22752;51.960;5.886;2024-01-15T01:34:24;1.30;99.90
36800;DHT22;22752;51.960;5.886;2024-01-15T01:36:49;1.30;99.90
36800;DHT22;22752;51.960;5.886;2024-01-15T01:39:15;1.30;99.90
36800;DHT22;22752;51.960;5.886;2024-01-15T01:41:41;1.30;99.90
36800;DHT22;22752;51.960;5.886;2024-01-15T01:44:07;1.20;99.90
36800;DHT22;22752;51.960;5.886;2024-01-15T01:46:34;1.20;99.90
36800;DHT22;22752;51.960;5.886;2024-01-15T01:49:04;1.20;99.90
36800;DHT22;22752;51.960;5.886;2024-01-15T01:51:31;1.20;99.90
36800;DHT22;22752;51.960;5.886;2024-01-15T01:53:59;1.20;99.90
36800;DHT22;22752;51.960;5.886;2024-01-15T01:56:24;1.20;99.90
36800;DHT22;22752;51.960;5.886;2024-01-15T01:58:50;1.20;99.90
36800;DHT22;22752;51.960;5.886;2024-01-15T02:01:18;1.20;99.90
36800;DHT22;22752;51.960;5.886;2024-01-15T02:03:44;1.20;99.90
36800;DHT22;22752;51.960;5.886;2024-01-15T02:06:09;1.20;99.90
36800;DHT22;22752;51.960;5.886;2024-01-15T02:08:35;1.20;99.90
36800;DHT22;22752;51.960;5.886;2024-01-15T02:11:01;1.20;99.90
36800;DHT22;22752;51.960;5.886;2024-01-15T02:13:27;1.10;99.90
36800;DHT22;22752;51.960;5.886;2024-01-15T02:15:53;1.20;99.90
36800;DHT22;22752;51.960;5.886;2024-01-15T02:18:18;1.20;99.90
36800;DHT22;22752;51.960;5.886;2024-01-15T02:20:45;1.10;99.90
36800;DHT22;22752;51.960;5.886;2024-01-15T02:23:15;1.10;99.90
36800;DHT22;22752;51.960;5.886;2024-01-15T02:25:45;1.10;99.90
36800;DHT22;22752;51.960;5.886;2024-01-15T02:28:13;1.20;99.90
36800;DHT22;22752;51.960;5.886;2024-01-15T02:30:40;1.10;99.90
36800;DHT22;22752;51.960;5.886;2024-01-15T02:33:07;1.10;99.90
36800;DHT22;22752;51.960;5.886;2024-01-15T02:35:33;1.10;99.90
36800;DHT22;22752;51.960;5.886;2024-01-15T02:37:59;1.10;99.90
36800;DHT22;22752;51.960;5.886;2024-01-15T02:40:25;1.10;99.90
36800;DHT22;22752;51.960;5.886;2024-01-15T02:42:50;1.20;99.90
36800;DHT22;22752;51.960;5.886;2024-01-15T02:45:17;1.20;99.90
36800;DHT22;22752;51.960;5.886;2024-01-15T02:47:42;1.30;99.90
36800;DHT22;22752;51.960;5.886;2024-01-15T02:50:08;1.40;99.90
36800;DHT22;22752;51.960;5.886;2024-01-15T02:52:34;1.50;99.90
36800;DHT22;22752;51.960;5.886;2024-01-15T02:54:59;1.60;99.90
36800;DHT22;22752;51.960;5.886;2024-01-15T02:57:25;1.80;99.90
36800;DHT22;22752;51.960;5.886;2024-01-15T02:59:51;1.90;99.90
36800;DHT22;22752;51.960;5.886;2024-01-15T03:02:16;1.90;99.90
36800;DHT22;22752;51.960;5.886;2024-01-15T03:04:45;2.00;99.90
36800;DHT22;22752;51.960;5.886;2024-01-15T03:07:11;2.00;99.90
36800;DHT22;22752;51.960;5.886;2024-01-15T03:09:37;2.00;99.90
36800;DHT22;22752;51.960;5.886;2024-01-15T03:12:03;1.90;99.90
36800;DHT22;22752;51.960;5.886;2024-01-15T03:14:29;1.80;99.90
36800;DHT22;22752;51.960;5.886;2024-01-15T03:16:55;1.80;99.90
36800;DHT22;22752;51.960;5.886;2024-01-15T03:19:21;1.70;99.90
36800;DHT22;22752;51.960;5.886;2024-01-15T03:21:47;1.60;99.90
36800;DHT22;22752;51.960;5.886;2024-01-15T03:24:12;1.50;99.90
36800;DHT22;22752;51.960;5.886;2024-01-15T03:26:38;1.40;99.90
36800;DHT22;22752;51.960;5.886;2024-01-15T03:29:04;1.30;99.90
36800;DHT22;22752;51.960;5.886;2024-01-15T03:31:30;1.20;99.90
36800;DHT22;22752;51.960;5.886;2024-01-15T03:33:56;1.20;99.90
36800;DHT22;22752;51.960;5.886;2024-01-15T03:36:22;1.20;99.90
36800;DHT22;22752;51.960;5.886;2024-01-15T03:38:48;1.20;99.90
36800;DHT22;22752;51.960;5.886;2024-01-15T03:41:13;1.20;99.90
36800;DHT22;22752;51.960;5.886;2024-01-15T03:43:39;1.20;99.90
36800;DHT22;22752;51.960;5.886;2024-01-15T03:46:05;1.20;99.90
36800;DHT22;22752;51.960;5.886;2024-01-15T03:48:31;1.20;99.90
36800;DHT22;22752;51.960;5.886;2024-01-15T03:50:57;1.10;99.90
36800;DHT22;22752;51.960;5.886;2024-01-15T03:53:22;1.10;99.90
36800;DHT22;22752;51.960;5.886;2024-01-15T03:55:49;1.10;99.90
36800;DHT22;22752;51.960;5.886;2024-01-15T03:58:14;1.10;99.90
36800;DHT22;22752;51.960;5.886;2024-01-15T04:00:41;1.20;99.90
36800;DHT22;22752;51.960;5.886;2024-01-15T04:03:06;1.20;99.90
36800;DHT22;22752;51.960;5.886;2024-01-15T04:05:32;1.30;99.90
36800;DHT22;22752;51.960;5.886;2024-01-15T04:07:57;1.40;99.90
36800;DHT22;22752;51.960;5.886;2024-01-15T04:10:23;1.40;99.90
36800;DHT22;22752;51.960;5.886;2024-01-15T04:12:49;1.50;99.90
36800;DHT22;22752;51.960;5.886;2024-01-15T04:15:15;1.40;99.90
36800;DHT22;22752;51.960;5.886;2024-01-15T04:17:41;1.40;99.90
36800;DHT22;22752;51.960;5.886;2024-01-15T04:20:07;1.50;99.90
36800;DHT22;22752;51.960;5.886;2024-01-15T04:22:34;1.50;99.90
36800;DHT22;22752;51.960;5.886;2024-01-15T04:25:00;1.50;99.90
36800;DHT22;22752;51.960;5.886;2024-01-15T04:27:26;1.50;99.90
36800;DHT22;22752;51.960;5.886;2024-01-15T04:29:51;1.50;99.90
36800;DHT22;22752;51.960;5.886;2024-01-15T04:32:18;1.50;99.90
36800;DHT22;22752;51.960;5.886;2024-01-15T04:34:44;1.50;99.90
36800;DHT22;22752;51.960;5.886;2024-01-15T04:37:09;1.50;99.90
36800;DHT22;22752;51.960;5.886;2024-01-15T04:39:35;1.60;99.90
36800;DHT22;22752;51.960;5.886;2024-01-15T04:42:01;1.60;99.90
36800;DHT22;22752;51.960;5.886;2024-01-15T04:44:26;1.60;99.90
36800;DHT22;22752;51.960;5.886;2024-01-15T04:46:52;1.60;99.90
36800;DHT22;22752;51.960;5.886;2024-01-15T04:49:18;1.60;99.90
36800;DHT22;22752;51.960;5.886;2024-01-15T04:51:43;1.50;99.90
36800;DHT22;22752;51.960;5.886;2024-01-15T04:54:09;1.40;99.90
36800;DHT22;22752;51.960;5.886;2024-01-15T04:56:35;1.40;99.90
36800;DHT22;22752;51.960;5.886;2024-01-15T04:59:00;1.30;99.90
36800;DHT22;22752;51.960;5.886;2024-01-15T05:01:31;1.20;99.90
36800;DHT22;22752;51.960;5.886;2024-01-15T05:03:56;1.20;99.90
36800;DHT22;22752;51.960;5.886;2024-01-15T05:06:22;1.20;99.90
36800;DHT22;22752;51.960;5.886;2024-01-15T05:08:47;1.20;99.90
36800;DHT22;22752;51.960;5.886;2024-01-15T05:11:13;1.20;99.90
36800;DHT22;22752;51.960;5.886;2024-01-15T05:13:39;1.20;99.90
36800;DHT22;22752;51.960;5.886;2024-01-15T05:16:04;1.10;99.90
36800;DHT22;22752;51.960;5.886;2024-01-15T05:18:30;1.20;99.90
36800;DHT22;22752;51.960;5.886;2024-01-15T05:20:56;1.20;99.90
36800;DHT22;22752;51.960;5.886;2024-01-15T05:23:21;1.20;99.90
36800;DHT22;22752;51.960;5.886;2024-01-15T05:25:47;1.10;99.90
36800;DHT22;22752;51.960;5.886;2024-01-15T05:28:14;1.20;99.90
36800;DHT22;22752;51.960;5.886;2024-01-15T05:30:39;1.20;99.90
36800;DHT22;22752;51.960;5.886;2024-01-15T05:33:05;1.10;99.90
36800;DHT22;22752;51.960;5.886;2024-01-15T05:35:33;1.20;99.90
36800;DHT22;22752;51.960;5.886;2024-01-15T05:37:58;1.20;99.90
36800;DHT22;22752;51.960;5.886;2024-01-15T05:40:24;1.30;99.90
36800;DHT22;22752;51.960;5.886;2024-01-15T05:42:50;1.30;99.90
36800;DHT22;22752;51.960;5.886;2024-01-15T05:45:15;1.30;99.90
36800;DHT22;22752;51.960;5.886;2024-01-15T05:47:41;1.40;99.90
36800;DHT22;22752;51.960;5.886;2024-01-15T05:50:07;1.50;99.90
36800;DHT22;22752;51.960;5.886;2024-01-15T05:52:33;1.60;99.90
36800;DHT22;22752;51.960;5.886;2024-01-15T05:54:59;1.70;99.90
36800;DHT22;22752;51.960;5.886;2024-01-15T05:57:25;1.70;99.90
36800;DHT22;22752;51.960;5.886;2024-01-15T05:59:50;1.70;99.90
36800;DHT22;22752;51.960;5.886;2024-01-15T06:02:16;1.70;99.90
36800;DHT22;22752;51.960;5.886;2024-01-15T06:04:42;1.70;99.90
36800;DHT22;22752;51.960;5.886;2024-01-15T06:07:07;1.70;99.90
36800;DHT22;22752;51.960;5.886;2024-01-15T06:09:33;1.80;99.90
36800;DHT22;22752;51.960;5.886;2024-01-15T06:11:59;1.70;99.90
36800;DHT22;22752;51.960;5.886;2024-01-15T06:14:24;1.90;99.90
36800;DHT22;22752;51.960;5.886;2024-01-15T06:16:50;1.90;99.90
36800;DHT22;22752;51.960;5.886;2024-01-15T06:19:16;2.00;99.90
36800;DHT22;22752;51.960;5.886;2024-01-15T06:21:41;2.00;99.90
36800;DHT22;22752;51.960;5.886;2024-01-15T06:24:07;2.00;99.90
36800;DHT22;22752;51.960;5.886;2024-01-15T06:26:35;2.10;99.90
36800;DHT22;22752;51.960;5.886;2024-01-15T06:29:01;2.00;99.90
36800;DHT22;22752;51.960;5.886;2024-01-15T06:31:28;2.10;99.90
36800;DHT22;22752;51.960;5.886;2024-01-15T06:33:54;2.10;99.90
36800;DHT22;22752;51.960;5.886;2024-01-15T06:36:20;2.10;99.90
36800;DHT22;22752;51.960;5.886;2024-01-15T06:38:46;2.10;99.90
36800;DHT22;22752;51.960;5.886;2024-01-15T06:41:11;2.10;99.90
36800;DHT22;22752;51.960;5.886;2024-01-15T06:43:37;2.10;99.90
36800;DHT22;22752;51.960;5.886;2024-01-15T06:46:03;2.10;99.90
36800;DHT22;22752;51.960;5.886;2024-01-15T06:48:28;2.10;99.90
36800;DHT22;22752;51.960;5.886;2024-01-15T06:50:54;2.10;99.90
36800;DHT22;22752;51.960;5.886;2024-01-15T06:53:20;2.10;99.90
36800;DHT22;22752;51.960;5.886;2024-01-15T06:55:46;2.00;99.90
36800;DHT22;22752;51.960;5.886;2024-01-15T06:58:12;2.00;99.90
36800;DHT22;22752;51.960;5.886;2024-01-15T07:00:37;1.90;99.90
36800;DHT22;22752;51.960;5.886;2024-01-15T07:03:03;1.90;99.90
36800;DHT22;22752;51.960;5.886;2024-01-15T07:05:29;1.80;99.90
36800;DHT22;22752;51.960;5.886;2024-01-15T07:07:56;1.80;99.90
36800;DHT22;22752;51.960;5.886;2024-01-15T07:10:22;1.80;99.90
36800;DHT22;22752;51.960;5.886;2024-01-15T07:12:47;1.70;99.90
36800;DHT22;22752;51.960;5.886;2024-01-15T07:15:13;1.80;99.90
36800;DHT22;22752;51.960;5.886;2024-01-15T07:17:39;1.70;99.90
36800;DHT22;22752;51.960;5.886;2024-01-15T07:20:09;1.80;99.90
36800;DHT22;22752;51.960;5.886;2024-01-15T07:22:38;1.70;99.90
36800;DHT22;22752;51.960;5.886;2024-01-15T07:25:04;1.70;99.90
36800;DHT22;22752;51.960;5.886;2024-01-15T07:27:31;1.80;99.90
36800;DHT22;22752;51.960;5.886;2024-01-15T07:29:57;1.80;99.90
36800;DHT22;22752;51.960;5.886;2024-01-15T07:32:22;1.80;99.90
36800;DHT22;22752;51.960;5.886;2024-01-15T07:34:48;1.70;99.90
36800;DHT22;22752;51.960;5.886;2024-01-15T07:37:14;1.70;99.90
36800;DHT22;22752;51.960;5.886;2024-01-15T07:39:40;1.80;99.90
36800;DHT22;22752;51.960;5.886;2024-01-15T07:42:06;1.80;99.90
36800;DHT22;22752;51.960;5.886;2024-01-15T07:44:32;1.80;99.90
36800;DHT22;22752;51.960;5.886;2024-01-15T07:46:58;1.80;99.90
36800;DHT22;22752;51.960;5.886;2024-01-15T07:49:24;1.80;99.90
36800;DHT22;22752;51.960;5.886;2024-01-15T07:51:49;1.80;99.90
36800;DHT22;22752;51.960;5.886;2024-01-15T07:54:15;1.90;99.90
36800;DHT22;22752;51.960;5.886;2024-01-15T07:56:54;1.90;99.90
36800;DHT22;22752;51.960;5.886;2024-01-15T07:59:20;1.90;99.90
36800;DHT22;22752;51.960;5.886;2024-01-15T08:01:46;1.90;99.90
36800;DHT22;22752;51.960;5.886;2024-01-15T08:04:12;1.90;99.90
36800;DHT22;22752;51.960;5.886;2024-01-15T08:06:39;1.90;99.90
36800;DHT22;22752;51.960;5.886;2024-01-15T08:09:04;1.80;99.90
36800;DHT22;22752;51.960;5.886;2024-01-15T08:11:30;1.80;99.90
36800;DHT22;22752;51.960;5.886;2024-01-15T08:13:56;1.80;99.90
36800;DHT22;22752;51.960;5.886;2024-01-15T08:16:22;1.80;99.90
36800;DHT22;22752;51.960;5.886;2024-01-15T08:18:49;1.80;99.90
36800;DHT22;22752;51.960;5.886;2024-01-15T08:21:15;1.80;99.90
36800;DHT22;22752;51.960;5.886;2024-01-15T08:23:41;1.80;99.90
36800;DHT22;22752;51.960;5.886;2024-01-15T08:26:07;1.80;99.90
36800;DHT22;22752;51.960;5.886;2024-01-15T08:28:34;1.90;99.90
36800;DHT22;22752;51.960;5.886;2024-01-15T08:31:00;1.90;99.90
36800;DHT22;22752;51.960;5.886;2024-01-15T08:33:25;1.90;99.90
36800;DHT22;22752;51.960;5.886;2024-01-15T08:35:51;1.90;99.90
36800;DHT22;22752;51.960;5.886;2024-01-15T08:38:16;1.90;99.90
36800;DHT22;22752;51.960;5.886;2024-01-15T08:40:42;2.00;99.90
36800;DHT22;22752;51.960;5.886;2024-01-15T08:43:08;2.00;99.90
36800;DHT22;22752;51.960;5.886;2024-01-15T08:45:33;2.00;99.90
36800;DHT22;22752;51.960;5.886;2024-01-15T08:47:59;2.00;99.90
36800;DHT22;22752;51.960;5.886;2024-01-15T08:50:25;2.00;99.90
36800;DHT22;22752;51.960;5.886;2024-01-15T08:52:50;1.90;99.90
36800;DHT22;22752;51.960;5.886;2024-01-15T08:55:16;1.90;99.90
36800;DHT22;22752;51.960;5.886;2024-01-15T08:57:42;1.80;99.90
36800;DHT22;22752;51.960;5.886;2024-01-15T09:00:09;1.90;99.90
36800;DHT22;22752;51.960;5.886;2024-01-15T09:02:34;1.90;99.90
36800;DHT22;22752;51.960;5.886;2024-01-15T09:05:01;1.90;99.90
36800;DHT22;22752;51.960;5.886;2024-01-15T09:07:27;2.00;99.90
36800;DHT22;22752;51.960;5.886;2024-01-15T09:09:53;2.00;99.90
36800;DHT22;22752;51.960;5.886;2024-01-15T09:12:19;2.00;99.90
36800;DHT22;22752;51.960;5.886;2024-01-15T09:14:46;2.10;99.90
36800;DHT22;22752;51.960;5.886;2024-01-15T09:17:12;2.10;99.90
36800;DHT22;22752;51.960;5.886;2024-01-15T09:19:38;2.10;99.90
36800;DHT22;22752;51.960;5.886;2024-01-15T09:22:07;2.10;99.90
36800;DHT22;22752;51.960;5.886;2024-01-15T09:24:32;2.10;99.90
36800;DHT22;22752;51.960;5.886;2024-01-15T09:26:58;2.10;99.90
36800;DHT22;22752;51.960;5.886;2024-01-15T09:29:24;2.20;99.90
36800;DHT22;22752;51.960;5.886;2024-01-15T09:31:50;2.20;99.90
36800;DHT22;22752;51.960;5.886;2024-01-15T09:34:16;2.30;99.90
36800;DHT22;22752;51.960;5.886;2024-01-15T09:36:42;2.30;99.90
36800;DHT22;22752;51.960;5.886;2024-01-15T09:39:08;2.20;99.90
36800;DHT22;22752;51.960;5.886;2024-01-15T09:41:38;2.20;99.90
36800;DHT22;22752;51.960;5.886;2024-01-15T09:44:04;2.30;99.90
36800;DHT22;22752;51.960;5.886;2024-01-15T09:46:32;2.40;99.90
36800;DHT22;22752;51.960;5.886;2024-01-15T09:48:58;2.60;99.90
36800;DHT22;22752;51.960;5.886;2024-01-15T09:51:24;2.70;99.90
36800;DHT22;22752;51.960;5.886;2024-01-15T09:53:50;2.80;99.90
36800;DHT22;22752;51.960;5.886;2024-01-15T09:56:16;2.80;99.90
36800;DHT22;22752;51.960;5.886;2024-01-15T09:58:42;2.80;99.90
36800;DHT22;22752;51.960;5.886;2024-01-15T10:01:09;2.70;99.90
36800;DHT22;22752;51.960;5.886;2024-01-15T10:03:36;2.60;99.90
36800;DHT22;22752;51.960;5.886;2024-01-15T10:06:03;2.50;99.90
36800;DHT22;22752;51.960;5.886;2024-01-15T10:08:29;2.30;99.90
36800;DHT22;22752;51.960;5.886;2024-01-15T10:10:55;2.20;99.90
36800;DHT22;22752;51.960;5.886;2024-01-15T10:13:21;2.20;99.90
36800;DHT22;22752;51.960;5.886;2024-01-15T10:15:47;2.20;99.90
36800;DHT22;22752;51.960;5.886;2024-01-15T10:18:13;2.20;99.90
36800;DHT22;22752;51.960;5.886;2024-01-15T10:20:39;2.20;99.90
36800;DHT22;22752;51.960;5.886;2024-01-15T10:23:05;2.30;99.90
36800;DHT22;22752;51.960;5.886;2024-01-15T10:25:31;2.30;99.90
36800;DHT22;22752;51.960;5.886;2024-01-15T10:28:01;2.40;99.90
36800;DHT22;22752;51.960;5.886;2024-01-15T10:30:26;2.50;99.90
36800;DHT22;22752;51.960;5.886;2024-01-15T10:33:03;2.80;99.90
36800;DHT22;22752;51.960;5.886;2024-01-15T10:35:32;3.00;99.90
36800;DHT22;22752;51.960;5.886;2024-01-15T10:38:01;3.00;99.90
36800;DHT22;22752;51.960;5.886;2024-01-15T10:40:28;3.00;99.90
36800;DHT22;22752;51.960;5.886;2024-01-15T10:42:54;2.90;99.90
36800;DHT22;22752;51.960;5.886;2024-01-15T10:45:20;3.00;99.90
36800;DHT22;22752;51.960;5.886;2024-01-15T10:47:46;3.10;99.90
36800;DHT22;22752;51.960;5.886;2024-01-15T10:50:12;3.20;99.90
36800;DHT22;22752;51.960;5.886;2024-01-15T10:52:39;3.40;99.90
36800;DHT22;22752;51.960;5.886;2024-01-15T10:55:11;3.50;99.90
36800;DHT22;22752;51.960;5.886;2024-01-15T10:57:38;3.50;99.90
36800;DHT22;22752;51.960;5.886;2024-01-15T11:00:07;3.50;99.90
36800;DHT22;22752;51.960;5.886;2024-01-15T11:02:36;3.50;99.90
36800;DHT22;22752;51.960;5.886;2024-01-15T11:05:02;3.50;99.90
36800;DHT22;22752;51.960;5.886;2024-01-15T11:07:30;3.30;99.90
36800;DHT22;22752;51.960;5.886;2024-01-15T11:09:56;3.20;99.90
36800;DHT22;22752;51.960;5.886;2024-01-15T11:12:24;3.00;99.90
36800;DHT22;22752;51.960;5.886;2024-01-15T11:14:50;2.80;99.90
36800;DHT22;22752;51.960;5.886;2024-01-15T11:17:17;2.80;99.90
36800;DHT22;22752;51.960;5.886;2024-01-15T11:19:44;2.70;99.90
36800;DHT22;22752;51.960;5.886;2024-01-15T11:24:54;2.60;99.90
36800;DHT22;22752;51.960;5.886;2024-01-15T11:30:08;2.70;99.90
36800;DHT22;22752;51.960;5.886;2024-01-15T11:32:37;2.90;99.90
36800;DHT22;22752;51.960;5.886;2024-01-15T11:35:07;3.10;99.90
36800;DHT22;22752;51.960;5.886;2024-01-15T11:42:46;3.10;99.90
36800;DHT22;22752;51.960;5.886;2024-01-15T11:45:13;3.00;99.90
36800;DHT22;22752;51.960;5.886;2024-01-15T11:50:09;2.80;99.90
36800;DHT22;22752;51.960;5.886;2024-01-15T11:52:38;2.80;99.90
36800;DHT22;22752;51.960;5.886;2024-01-15T11:55:30;2.80;99.90
36800;DHT22;22752;51.960;5.886;2024-01-15T11:58:01;2.80;99.90
36800;DHT22;22752;51.960;5.886;2024-01-15T12:00:28;2.80;99.90
36800;DHT22;22752;51.960;5.886;2024-01-15T12:02:54;2.80;99.90
36800;DHT22;22752;51.960;5.886;2024-01-15T12:05:22;2.90;99.90
36800;DHT22;22752;51.960;5.886;2024-01-15T12:07:49;2.90;99.90
36800;DHT22;22752;51.960;5.886;2024-01-15T12:10:17;2.90;99.90
36800;DHT22;22752;51.960;5.886;2024-01-15T12:13:14;2.90;99.90
36800;DHT22;22752;51.960;5.886;2024-01-15T12:15:44;2.90;99.90
36800;DHT22;22752;51.960;5.886;2024-01-15T12:18:15;2.90;99.90
36800;DHT22;22752;51.960;5.886;2024-01-15T12:20:41;2.90;99.90
36800;DHT22;22752;51.960;5.886;2024-01-15T12:23:08;3.00;99.90
36800;DHT22;22752;51.960;5.886;2024-01-15T12:25:35;3.10;99.90
36800;DHT22;22752;51.960;5.886;2024-01-15T12:28:01;3.20;99.90
36800;DHT22;22752;51.960;5.886;2024-01-15T12:30:28;3.30;99.90
36800;DHT22;22752;51.960;5.886;2024-01-15T12:32:54;3.50;99.90
36800;DHT22;22752;51.960;5.886;2024-01-15T12:35:20;3.70;99.90
36800;DHT22;22752;51.960;5.886;2024-01-15T12:37:45;3.80;99.90
36800;DHT22;22752;51.960;5.886;2024-01-15T12:40:13;3.90;99.90
36800;DHT22;22752;51.960;5.886;2024-01-15T12:42:40;4.10;99.90
36800;DHT22;22752;51.960;5.886;2024-01-15T12:45:06;4.10;99.90
36800;DHT22;22752;51.960;5.886;2024-01-15T12:47:33;4.00;99.90
36800;DHT22;22752;51.960;5.886;2024-01-15T12:49:59;4.00;99.90
36800;DHT22;22752;51.960;5.886;2024-01-15T12:52:28;4.00;99.90
36800;DHT22;22752;51.960;5.886;2024-01-15T12:54:55;4.00;99.90
36800;DHT22;22752;51.960;5.886;2024-01-15T12:57:21;3.90;99.90
36800;DHT22;22752;51.960;5.886;2024-01-15T12:59:47;3.80;99.90
36800;DHT22;22752;51.960;5.886;2024-01-15T13:02:13;3.70;99.90
36800;DHT22;22752;51.960;5.886;2024-01-15T13:04:39;3.60;99.90
36800;DHT22;22752;51.960;5.886;2024-01-15T13:07:08;3.50;99.90
36800;DHT22;22752;51.960;5.886;2024-01-15T13:09:34;3.40;99.90
36800;DHT22;22752;51.960;5.886;2024-01-15T13:12:01;3.40;99.90
36800;DHT22;22752;51.960;5.886;2024-01-15T13:14:27;3.40;99.90
36800;DHT22;22752;51.960;5.886;2024-01-15T13:16:53;3.60;99.90
36800;DHT22;22752;51.960;5.886;2024-01-15T13:19:19;3.80;99.90
36800;DHT22;22752;51.960;5.886;2024-01-15T13:21:47;3.90;99.90
36800;DHT22;22752;51.960;5.886;2024-01-15T13:24:13;3.90;99.90
36800;DHT22;22752;51.960;5.886;2024-01-15T13:26:39;3.90;99.90
36800;DHT22;22752;51.960;5.886;2024-01-15T13:29:06;3.70;99.90
36800;DHT22;22752;51.960;5.886;2024-01-15T13:31:32;3.60;99.90
36800;DHT22;22752;51.960;5.886;2024-01-15T13:33:58;3.50;99.90
36800;DHT22;22752;51.960;5.886;2024-01-15T13:36:27;3.50;99.90
36800;DHT22;22752;51.960;5.886;2024-01-15T13:38:54;3.40;99.90
36800;DHT22;22752;51.960;5.886;2024-01-15T13:41:20;3.40;99.90
36800;DHT22;22752;51.960;5.886;2024-01-15T13:43:53;3.40;99.90
36800;DHT22;22752;51.960;5.886;2024-01-15T13:46:19;3.30;99.90
36800;DHT22;22752;51.960;5.886;2024-01-15T13:48:46;3.20;99.90
36800;DHT22;22752;51.960;5.886;2024-01-15T13:51:11;3.00;99.90
36800;DHT22;22752;51.960;5.886;2024-01-15T13:53:40;2.90;99.90
36800;DHT22;22752;51.960;5.886;2024-01-15T13:56:06;2.80;99.90
36800;DHT22;22752;51.960;5.886;2024-01-15T13:58:33;2.70;99.90
36800;DHT22;22752;51.960;5.886;2024-01-15T14:01:00;2.60;99.90
36800;DHT22;22752;51.960;5.886;2024-01-15T14:03:25;2.60;99.90
36800;DHT22;22752;51.960;5.886;2024-01-15T14:05:52;2.50;99.90
36800;DHT22;22752;51.960;5.886;2024-01-15T14:08:18;2.50;99.90
36800;DHT22;22752;51.960;5.886;2024-01-15T14:10:43;2.50;99.90
36800;DHT22;22752;51.960;5.886;2024-01-15T14:13:10;2.40;99.90
36800;DHT22;22752;51.960;5.886;2024-01-15T14:15:36;2.50;99.90
36800;DHT22;22752;51.960;5.886;2024-01-15T14:18:02;2.50;99.90
36800;DHT22;22752;51.960;5.886;2024-01-15T14:20:27;2.60;99.90
36800;DHT22;22752;51.960;5.886;2024-01-15T14:22:54;2.70;99.90
36800;DHT22;22752;51.960;5.886;2024-01-15T14:25:22;2.80;99.90
36800;DHT22;22752;51.960;5.886;2024-01-15T14:27:49;2.90;99.90
36800;DHT22;22752;51.960;5.886;2024-01-15T14:30:16;3.00;99.90
36800;DHT22;22752;51.960;5.886;2024-01-15T14:32:42;3.10;99.90
36800;DHT22;22752;51.960;5.886;2024-01-15T14:35:08;3.20;99.90
36800;DHT22;22752;51.960;5.886;2024-01-15T14:37:36;3.20;99.90
36800;DHT22;22752;51.960;5.886;2024-01-15T14:40:02;3.10;99.90
36800;DHT22;22752;51.960;5.886;2024-01-15T14:42:29;3.00;99.90
36800;DHT22;22752;51.960;5.886;2024-01-15T14:44:55;2.90;99.90
36800;DHT22;22752;51.960;5.886;2024-01-15T14:47:21;2.70;99.90
36800;DHT22;22752;51.960;5.886;2024-01-15T14:49:49;2.70;99.90
36800;DHT22;22752;51.960;5.886;2024-01-15T14:52:15;2.70;99.90
36800;DHT22;22752;51.960;5.886;2024-01-15T14:54:41;2.70;99.90
36800;DHT22;22752;51.960;5.886;2024-01-15T14:57:07;2.70;99.90
36800;DHT22;22752;51.960;5.886;2024-01-15T14:59:32;2.60;99.90
36800;DHT22;22752;51.960;5.886;2024-01-15T15:01:58;2.50;99.90
36800;DHT22;22752;51.960;5.886;2024-01-15T15:04:24;2.50;99.90
36800;DHT22;22752;51.960;5.886;2024-01-15T15:06:49;2.60;99.90
36800;DHT22;22752;51.960;5.886;2024-01-15T15:09:15;2.70;99.90
36800;DHT22;22752;51.960;5.886;2024-01-15T15:11:41;2.70;99.90
36800;DHT22;22752;51.960;5.886;2024-01-15T15:14:07;2.80;99.90
36800;DHT22;22752;51.960;5.886;2024-01-15T15:16:32;2.80;99.90
36800;DHT22;22752;51.960;5.886;2024-01-15T15:18:58;2.80;99.90
36800;DHT22;22752;51.960;5.886;2024-01-15T15:21:24;2.70;99.90
36800;DHT22;22752;51.960;5.886;2024-01-15T15:23:49;2.60;99.90
36800;DHT22;22752;51.960;5.886;2024-01-15T15:26:15;2.40;99.90
36800;DHT22;22752;51.960;5.886;2024-01-15T15:28:41;2.30;99.90
36800;DHT22;22752;51.960;5.886;2024-01-15T15:31:07;2.20;99.90
36800;DHT22;22752;51.960;5.886;2024-01-15T15:33:39;2.20;99.90
36800;DHT22;22752;51.960;5.886;2024-01-15T15:36:05;2.30;99.90
36800;DHT22;22752;51.960;5.886;2024-01-15T15:38:31;2.30;99.90
36800;DHT22;22752;51.960;5.886;2024-01-15T15:40:57;2.30;99.90
36800;DHT22;22752;51.960;5.886;2024-01-15T15:43:25;2.20;99.90
36800;DHT22;22752;51.960;5.886;2024-01-15T15:45:50;2.20;99.90
36800;DHT22;22752;51.960;5.886;2024-01-15T15:48:16;2.20;99.90
36800;DHT22;22752;51.960;5.886;2024-01-15T15:50:42;2.20;99.90
36800;DHT22;22752;51.960;5.886;2024-01-15T15:53:08;2.00;99.90